createdAt,value
2023-01-26T00:01:31.737Z,-1.68
2023-01-26T00:04:33.256Z,-1.68
2023-01-26T00:07:34.975Z,-1.68
2023-01-26T00:10:37.133Z,-1.69
2023-01-26T00:13:39.252Z,-1.68
2023-01-26T00:16:40.891Z,-1.69
2023-01-26T00:19:42.663Z,-1.69
2023-01-26T00:22:44.526Z,-1.69
2023-01-26T00:25:46.082Z,-1.70
2023-01-26T00:28:47.828Z,-1.70
2023-01-26T00:31:49.469Z,-1.70
2023-01-26T00:34:51.097Z,-1.71
2023-01-26T00:37:52.632Z,-1.71
2023-01-26T00:40:54.289Z,-1.70
2023-01-26T00:43:56.097Z,-1.71
2023-01-26T00:46:57.661Z,-1.71
2023-01-26T00:49:59.336Z,-1.71
2023-01-26T00:53:01.135Z,-1.69
2023-01-26T00:56:02.746Z,-1.69
2023-01-26T00:59:04.323Z,-1.69
2023-01-26T01:02:05.971Z,-1.69
2023-01-26T01:05:08.022Z,-1.69
2023-01-26T01:08:10.082Z,-1.70
2023-01-26T01:11:12.104Z,-1.72
2023-01-26T01:14:14.449Z,-1.71
2023-01-26T01:17:16.124Z,-1.69
2023-01-26T01:20:18.041Z,-1.68
2023-01-26T01:23:19.605Z,-1.65
2023-01-26T01:26:21.552Z,-1.63
2023-01-26T01:29:23.141Z,-1.64
2023-01-26T01:32:24.803Z,-1.64
2023-01-26T01:35:26.543Z,-1.64
2023-01-26T01:38:28.813Z,-1.64
2023-01-26T01:41:30.535Z,-1.61
2023-01-26T01:44:35.245Z,-1.59
2023-01-26T01:47:36.926Z,-1.57
2023-01-26T01:50:39.785Z,-1.56
2023-01-26T01:53:43.737Z,-1.56
2023-01-26T01:56:50.392Z,-1.56
2023-01-26T01:59:57.841Z,-1.55
2023-01-26T02:03:06.126Z,-1.54
2023-01-26T02:06:21.600Z,-1.52
2023-01-26T02:09:28.979Z,-1.51
2023-01-26T02:12:32.738Z,-1.50
2023-01-26T02:15:34.608Z,-1.49
2023-01-26T02:18:36.412Z,-1.48
2023-01-26T02:21:37.867Z,-1.47
2023-01-26T02:24:40.120Z,-1.48
2023-01-26T02:27:41.797Z,-1.48
2023-01-26T02:30:43.385Z,-1.47
2023-01-26T02:33:45.527Z,-1.47
2023-01-26T02:36:59.273Z,-1.48
2023-01-26T02:40:07.793Z,-1.47
2023-01-26T02:43:09.996Z,-1.47
2023-01-26T02:46:11.646Z,-1.46
2023-01-26T02:49:13.212Z,-1.46
2023-01-26T02:52:19.878Z,-1.47
2023-01-26T02:55:21.502Z,-1.50
2023-01-26T02:58:23.137Z,-1.51
2023-01-26T03:01:25.112Z,-1.50
2023-01-26T03:04:26.698Z,-1.50
2023-01-26T03:07:28.439Z,-1.50
2023-01-26T03:10:30.146Z,-1.56
2023-01-26T03:13:31.782Z,-1.61
2023-01-26T03:16:33.338Z,-1.64
2023-01-26T03:19:35.000Z,-1.67
2023-01-26T03:22:36.606Z,-1.70
2023-01-26T03:25:38.274Z,-1.73
2023-01-26T03:28:39.828Z,-1.73
2023-01-26T03:31:41.549Z,-1.73
2023-01-26T03:34:43.257Z,-1.73
2023-01-26T03:37:44.755Z,-1.76
2023-01-26T03:40:46.380Z,-1.76
2023-01-26T03:43:47.996Z,-1.75
2023-01-26T03:46:49.695Z,-1.74
2023-01-26T03:49:51.234Z,-1.78
2023-01-26T03:52:52.796Z,-1.81
2023-01-26T03:55:54.421Z,-1.82
2023-01-26T03:58:58.046Z,-1.84
2023-01-26T04:01:59.718Z,-1.85
2023-01-26T04:05:01.415Z,-1.83
2023-01-26T04:08:05.078Z,-1.80
2023-01-26T04:11:06.895Z,-1.78
2023-01-26T04:14:12.091Z,-1.75
2023-01-26T04:17:14.100Z,-1.73
2023-01-26T04:20:15.743Z,-1.74
2023-01-26T04:23:18.960Z,-1.74
2023-01-26T04:26:20.752Z,-1.75
2023-01-26T04:29:23.990Z,-1.76
2023-01-26T04:32:25.777Z,-1.74
2023-01-26T04:35:27.354Z,-1.74
2023-01-26T04:38:28.993Z,-1.74
2023-01-26T04:41:31.426Z,-1.74
2023-01-26T04:44:33.063Z,-1.73
2023-01-26T04:47:34.643Z,-1.73
2023-01-26T04:50:36.291Z,-1.73
2023-01-26T04:53:38.372Z,-1.72
2023-01-26T04:56:40.007Z,-1.71
2023-01-26T04:59:41.715Z,-1.68
2023-01-26T05:02:43.301Z,-1.67
2023-01-26T05:05:45.164Z,-1.75
2023-01-26T05:08:46.810Z,-1.99
2023-01-26T05:11:48.500Z,-2.27
2023-01-26T05:14:50.043Z,-2.46
2023-01-26T05:17:51.754Z,-2.53
2023-01-26T05:20:53.364Z,-2.64
2023-01-26T05:23:55.511Z,-2.69
2023-01-26T05:26:57.169Z,-2.66
2023-01-26T05:29:59.087Z,-2.59
2023-01-26T05:33:08.673Z,-2.50
2023-01-26T05:36:10.360Z,-2.48
2023-01-26T05:39:12.109Z,-2.49
2023-01-26T05:42:13.712Z,-2.53
2023-01-26T05:45:15.864Z,-2.59
2023-01-26T05:48:17.854Z,-2.61
2023-01-26T05:51:19.499Z,-2.57
2023-01-26T05:54:21.157Z,-2.57
2023-01-26T05:57:22.660Z,-2.66
2023-01-26T06:00:24.379Z,-2.66
2023-01-26T06:03:25.919Z,-2.54
2023-01-26T06:06:27.593Z,-2.48
2023-01-26T06:09:29.135Z,-2.49
2023-01-26T06:12:30.740Z,-2.46
2023-01-26T06:15:32.389Z,-2.37
2023-01-26T06:18:34.006Z,-2.32
2023-01-26T06:21:35.860Z,-2.30
2023-01-26T06:24:37.402Z,-2.30
2023-01-26T06:27:39.026Z,-2.27
2023-01-26T06:30:40.774Z,-2.22
2023-01-26T06:33:42.503Z,-2.17
2023-01-26T06:36:44.201Z,-2.10
2023-01-26T06:39:45.776Z,-2.06
2023-01-26T06:42:48.820Z,-2.02
2023-01-26T06:45:50.745Z,-1.99
2023-01-26T06:48:52.353Z,-1.94
2023-01-26T06:52:05.894Z,-1.90
2023-01-26T06:55:16.872Z,-1.87
2023-01-26T06:58:18.453Z,-1.81
2023-01-26T07:01:22.391Z,-1.77
2023-01-26T07:04:26.514Z,-1.71
2023-01-26T07:07:28.302Z,-1.69
2023-01-26T07:10:30.712Z,-1.71
2023-01-26T07:13:32.317Z,-1.69
2023-01-26T07:16:34.345Z,-1.69
2023-01-26T07:19:35.919Z,-1.66
2023-01-26T07:22:37.615Z,-1.63
2023-01-26T07:25:43.641Z,-1.64
2023-01-26T07:28:45.324Z,-1.66
2023-01-26T07:31:46.868Z,-1.68
2023-01-26T07:34:48.481Z,-1.70
2023-01-26T07:37:49.974Z,-1.70
2023-01-26T07:40:52.160Z,-1.68
2023-01-26T07:43:53.701Z,-1.67
2023-01-26T07:46:55.469Z,-1.68
2023-01-26T07:49:56.948Z,-1.67
2023-01-26T07:53:00.830Z,-1.64
2023-01-26T07:56:10.703Z,-1.60
2023-01-26T07:59:12.355Z,-1.58
2023-01-26T08:02:13.898Z,-1.54
2023-01-26T08:05:15.619Z,-1.53
2023-01-26T08:08:17.274Z,-1.52
2023-01-26T08:11:19.663Z,-1.49
2023-01-26T08:14:21.237Z,-1.44
2023-01-26T08:17:23.160Z,-1.40
2023-01-26T08:20:24.916Z,-1.37
2023-01-26T08:23:27.340Z,-1.35
2023-01-26T08:26:28.956Z,-1.33
2023-01-26T08:29:30.622Z,-1.31
2023-01-26T08:32:32.200Z,-1.29
2023-01-26T08:35:34.375Z,-1.27
2023-01-26T08:38:36.391Z,-1.25
2023-01-26T08:41:37.964Z,-1.23
2023-01-26T08:44:39.491Z,-1.23
2023-01-26T08:47:41.094Z,-1.23
2023-01-26T08:50:42.735Z,-1.21
2023-01-26T08:53:44.513Z,-1.20
2023-01-26T08:56:46.096Z,-1.21
2023-01-26T08:59:47.720Z,-1.22
2023-01-26T09:02:49.364Z,-1.21
2023-01-26T09:05:51.159Z,-1.18
2023-01-26T09:08:52.790Z,-1.16
2023-01-26T09:11:57.626Z,-1.11
2023-01-26T09:14:59.249Z,-1.08
2023-01-26T09:18:01.270Z,-1.04
2023-01-26T09:21:07.735Z,-1.01
2023-01-26T09:24:09.466Z,-1.02
2023-01-26T09:27:11.216Z,-1.03
2023-01-26T09:30:13.398Z,-1.06
2023-01-26T09:33:15.016Z,-1.08
2023-01-26T09:36:16.952Z,-1.06
2023-01-26T09:39:18.600Z,-1.06
2023-01-26T09:42:32.689Z,-1.09
2023-01-26T09:45:38.418Z,-1.11
2023-01-26T09:49:04.189Z,-1.08
2023-01-26T09:52:26.744Z,-1.05
2023-01-26T09:55:28.427Z,-1.02
2023-01-26T09:58:35.064Z,-0.99
2023-01-26T10:02:04.667Z,-0.99
2023-01-26T10:05:14.891Z,-0.96
2023-01-26T10:08:18.816Z,-0.93
2023-01-26T10:11:22.386Z,-0.90
2023-01-26T10:14:41.557Z,-0.82
2023-01-26T10:17:44.211Z,-0.76
2023-01-26T10:20:50.869Z,-0.72
2023-01-26T10:23:52.866Z,-0.67
2023-01-26T10:26:57.176Z,-0.68
2023-01-26T10:29:58.834Z,-0.67
2023-01-26T10:33:00.532Z,-0.64
2023-01-26T10:36:04.932Z,-0.61
2023-01-26T10:39:12.536Z,-0.57
2023-01-26T10:42:18.822Z,-0.53
2023-01-26T10:45:29.853Z,-0.52
2023-01-26T10:48:31.678Z,-0.53
2023-01-26T10:51:34.750Z,-0.50
2023-01-26T10:54:36.666Z,-0.45
2023-01-26T10:57:40.027Z,-0.38
2023-01-26T11:00:41.686Z,-0.33
2023-01-26T11:04:04.352Z,-0.28
2023-01-26T11:07:29.350Z,-0.22
2023-01-26T11:10:35.222Z,-0.17
2023-01-26T11:13:37.342Z,-0.15
2023-01-26T11:16:39.077Z,-0.15
2023-01-26T11:19:48.133Z,-0.12
2023-01-26T11:23:18.989Z,-0.10
2023-01-26T11:26:45.691Z,-0.18
2023-01-26T11:29:53.484Z,-0.25
2023-01-26T11:33:13.600Z,-0.19
2023-01-26T11:36:31.417Z,-0.15
2023-01-26T11:39:54.696Z,-0.12
2023-01-26T11:43:05.921Z,-0.11
2023-01-26T11:46:16.379Z,-0.07
2023-01-26T11:49:49.204Z,-0.02
2023-01-26T11:52:56.827Z,0.01
2023-01-26T11:56:19.854Z,0.03
2023-01-26T11:59:41.686Z,0.04
2023-01-26T12:02:46.977Z,-0.00
2023-01-26T12:05:54.377Z,-0.04
2023-01-26T12:09:13.314Z,-0.04
2023-01-26T12:12:24.820Z,-0.06
2023-01-26T12:15:33.535Z,-0.05
2023-01-26T12:18:53.252Z,-0.05
2023-01-26T12:22:06.592Z,-0.06
2023-01-26T12:25:19.810Z,-0.13
2023-01-26T12:28:39.243Z,-0.13
2023-01-26T12:31:56.692Z,-0.21
2023-01-26T12:34:58.391Z,-0.22
2023-01-26T12:38:51.602Z,-0.17
2023-01-26T12:41:59.169Z,-0.12
2023-01-26T12:45:01.608Z,-0.13
2023-01-26T12:48:03.265Z,-0.16
2023-01-26T12:51:11.390Z,-0.18
2023-01-26T12:54:17.224Z,-0.24
2023-01-26T12:57:22.892Z,-0.49
2023-01-26T13:00:30.149Z,-0.70
2023-01-26T13:03:34.425Z,-0.87
2023-01-26T13:06:36.070Z,-0.96
2023-01-26T13:09:37.767Z,-1.00
2023-01-26T13:12:48.644Z,-1.07
2023-01-26T13:16:30.496Z,-1.13
2023-01-26T13:19:35.856Z,-1.19
2023-01-26T13:22:39.697Z,-1.21
2023-01-26T13:25:52.215Z,-1.26
2023-01-26T13:29:26.495Z,-1.28
2023-01-26T13:32:28.105Z,-1.34
2023-01-26T13:35:30.626Z,-1.35
2023-01-26T13:38:45.313Z,-1.35
2023-01-26T13:41:48.028Z,-1.37
2023-01-26T13:44:55.054Z,-1.35
2023-01-26T13:47:58.186Z,-1.32
2023-01-26T13:51:01.182Z,-1.30
2023-01-26T13:54:07.199Z,-1.22
2023-01-26T13:57:11.563Z,-1.13
2023-01-26T14:00:14.614Z,-1.08
2023-01-26T14:03:21.293Z,-1.06
2023-01-26T14:06:22.956Z,-1.09
2023-01-26T14:09:27.353Z,-1.08
2023-01-26T14:12:41.928Z,-1.06
2023-01-26T14:15:43.572Z,-1.04
2023-01-26T14:18:48.618Z,-1.05
2023-01-26T14:22:00.570Z,-1.04
2023-01-26T14:25:02.291Z,-1.02
2023-01-26T14:28:04.635Z,-0.99
2023-01-26T14:31:18.448Z,-0.98
2023-01-26T14:34:30.747Z,-0.97
2023-01-26T14:37:32.386Z,-0.99
2023-01-26T14:40:34.006Z,-1.10
2023-01-26T14:43:35.603Z,-1.24
2023-01-26T14:46:51.770Z,-1.32
2023-01-26T14:50:06.598Z,-1.32
2023-01-26T14:53:19.365Z,-1.31
2023-01-26T14:56:23.913Z,-1.34
2023-01-26T14:59:32.079Z,-1.43
2023-01-26T15:02:43.133Z,-1.53
2023-01-26T15:05:44.914Z,-1.53
2023-01-26T15:09:04.940Z,-1.56
2023-01-26T15:12:13.710Z,-1.59
2023-01-26T15:15:15.578Z,-1.61
2023-01-26T15:18:18.193Z,-1.72
2023-01-26T15:21:21.617Z,-1.85
2023-01-26T15:24:23.322Z,-1.90
2023-01-26T15:27:24.993Z,-1.93
2023-01-26T15:30:29.210Z,-1.94
2023-01-26T15:33:38.369Z,-1.94
2023-01-26T15:36:43.276Z,-1.97
2023-01-26T15:39:45.020Z,-1.98
2023-01-26T15:42:46.544Z,-2.04
2023-01-26T15:45:57.306Z,-2.10
2023-01-26T15:48:58.969Z,-2.10
2023-01-26T15:52:00.536Z,-2.10
2023-01-26T15:55:02.116Z,-2.08
2023-01-26T15:58:03.724Z,-2.08
2023-01-26T16:01:05.764Z,-2.06
2023-01-26T16:04:11.919Z,-2.04
2023-01-26T16:07:16.123Z,-2.03
2023-01-26T16:10:17.843Z,-2.04
2023-01-26T16:13:19.374Z,-2.02
2023-01-26T16:16:21.361Z,-2.02
2023-01-26T16:19:34.631Z,-2.02
2023-01-26T16:22:37.067Z,-2.02
2023-01-26T16:25:38.601Z,-2.02
2023-01-26T16:28:40.271Z,-2.01
2023-01-26T16:31:41.890Z,-2.02
2023-01-26T16:34:43.559Z,-2.04
2023-01-26T16:37:45.192Z,-2.06
2023-01-26T16:40:48.068Z,-2.07
2023-01-26T16:43:49.753Z,-2.07
2023-01-26T16:46:51.343Z,-2.06
2023-01-26T16:49:52.868Z,-2.04
2023-01-26T16:52:55.233Z,-2.05
2023-01-26T16:55:57.023Z,-2.05
2023-01-26T16:58:58.627Z,-2.03
2023-01-26T17:02:00.375Z,-2.02
2023-01-26T17:05:01.910Z,-2.04
2023-01-26T17:08:03.690Z,-2.05
2023-01-26T17:11:05.329Z,-2.05
2023-01-26T17:14:06.911Z,-2.05
2023-01-26T17:17:10.070Z,-2.05
2023-01-26T17:20:19.361Z,-2.05
2023-01-26T17:23:21.783Z,-2.04
2023-01-26T17:26:23.589Z,-2.02
2023-01-26T17:29:25.264Z,-2.00
2023-01-26T17:32:26.962Z,-2.01
2023-01-26T17:35:28.605Z,-2.11
2023-01-26T17:38:30.344Z,-2.31
2023-01-26T17:41:31.925Z,-2.56
2023-01-26T17:44:34.220Z,-2.69
2023-01-26T17:47:36.283Z,-2.76
2023-01-26T17:50:37.874Z,-2.82
2023-01-26T17:53:40.916Z,-2.80
2023-01-26T17:56:43.189Z,-2.78
2023-01-26T17:59:44.782Z,-2.75
2023-01-26T18:02:46.427Z,-2.72
2023-01-26T18:05:56.619Z,-2.67
2023-01-26T18:08:58.300Z,-2.70
2023-01-26T18:12:00.047Z,-2.79
2023-01-26T18:15:01.652Z,-2.83
2023-01-26T18:18:03.512Z,-2.82
2023-01-26T18:21:11.298Z,-2.77
2023-01-26T18:24:12.874Z,-2.77
2023-01-26T18:27:14.533Z,-2.77
2023-01-26T18:30:16.692Z,-2.78
2023-01-26T18:33:18.335Z,-2.78
2023-01-26T18:36:21.063Z,-2.76
2023-01-26T18:39:22.698Z,-2.78
2023-01-26T18:42:24.277Z,-2.70
2023-01-26T18:45:25.935Z,-2.57
2023-01-26T18:48:27.975Z,-2.49
2023-01-26T18:51:35.070Z,-2.61
2023-01-26T18:54:36.726Z,-2.71
2023-01-26T18:57:38.569Z,-2.83
2023-01-26T19:00:40.200Z,-2.88
2023-01-26T19:03:42.320Z,-2.90
2023-01-26T19:06:43.949Z,-2.95
2023-01-26T19:09:45.935Z,-2.99
2023-01-26T19:12:50.538Z,-2.96
2023-01-26T19:15:52.220Z,-2.94
2023-01-26T19:18:54.009Z,-2.98
2023-01-26T19:21:55.571Z,-3.03
2023-01-26T19:24:57.227Z,-3.05
2023-01-26T19:27:58.848Z,-3.03
2023-01-26T19:31:04.139Z,-3.03
2023-01-26T19:34:07.871Z,-3.05
2023-01-26T19:37:12.855Z,-3.04
2023-01-26T19:40:14.614Z,-2.98
2023-01-26T19:43:16.755Z,-2.97
2023-01-26T19:46:19.411Z,-2.95
2023-01-26T19:49:21.404Z,-2.93
2023-01-26T19:52:23.000Z,-2.90
2023-01-26T19:55:24.644Z,-2.89
2023-01-26T19:58:27.460Z,-2.89
2023-01-26T20:01:30.156Z,-2.87
2023-01-26T20:04:31.771Z,-2.85
2023-01-26T20:07:33.429Z,-2.81
2023-01-26T20:10:35.003Z,-2.79
2023-01-26T20:13:36.810Z,-2.77
2023-01-26T20:16:38.458Z,-2.70
2023-01-26T20:19:40.104Z,-2.66
2023-01-26T20:22:41.748Z,-2.65
2023-01-26T20:25:43.425Z,-2.68
2023-01-26T20:28:45.060Z,-2.68
2023-01-26T20:31:47.841Z,-2.73
2023-01-26T20:34:49.833Z,-2.70
2023-01-26T20:37:51.527Z,-2.61
2023-01-26T20:40:53.212Z,-2.57
2023-01-26T20:44:01.620Z,-2.61
2023-01-26T20:47:03.716Z,-2.72
2023-01-26T20:50:06.343Z,-2.85
2023-01-26T20:53:08.294Z,-2.90
2023-01-26T20:56:10.780Z,-2.93
2023-01-26T20:59:12.421Z,-2.89
2023-01-26T21:02:14.960Z,-2.93
2023-01-26T21:05:16.749Z,-2.95
2023-01-26T21:08:18.269Z,-2.97
2023-01-26T21:11:20.736Z,-3.00
2023-01-26T21:14:22.341Z,-2.99
2023-01-26T21:17:23.928Z,-3.00
2023-01-26T21:20:25.532Z,-3.01
2023-01-26T21:23:27.263Z,-2.94
2023-01-26T21:26:28.917Z,-2.86
2023-01-26T21:29:30.443Z,-2.86
2023-01-26T21:32:32.021Z,-2.81
2023-01-26T21:35:33.753Z,-2.71
2023-01-26T21:38:43.674Z,-2.63
2023-01-26T21:41:45.274Z,-2.54
2023-01-26T21:44:46.916Z,-2.48
2023-01-26T21:47:50.688Z,-2.43
2023-01-26T21:50:56.051Z,-2.38
2023-01-26T21:53:57.730Z,-2.39
2023-01-26T21:57:00.008Z,-2.38
2023-01-26T22:00:01.561Z,-2.34
2023-01-26T22:03:03.237Z,-2.36
2023-01-26T22:06:04.957Z,-2.40
2023-01-26T22:09:07.123Z,-2.41
2023-01-26T22:12:08.734Z,-2.38
2023-01-26T22:15:10.611Z,-2.35
2023-01-26T22:18:12.307Z,-2.33
2023-01-26T22:21:13.855Z,-2.31
2023-01-26T22:24:15.712Z,-2.29
2023-01-26T22:27:17.478Z,-2.29
2023-01-26T22:30:19.099Z,-2.29
2023-01-26T22:33:20.634Z,-2.28
2023-01-26T22:36:23.186Z,-2.26
2023-01-26T22:39:24.878Z,-2.24
2023-01-26T22:42:26.483Z,-2.23
2023-01-26T22:45:28.140Z,-2.22
2023-01-26T22:48:30.721Z,-2.22
2023-01-26T22:51:34.171Z,-2.21
2023-01-26T22:54:36.385Z,-2.21
2023-01-26T22:57:37.933Z,-2.20
2023-01-26T23:00:39.520Z,-2.19
2023-01-26T23:03:42.508Z,-2.19
2023-01-26T23:06:44.208Z,-2.19
2023-01-26T23:09:45.867Z,-2.19
2023-01-26T23:12:47.571Z,-2.20
2023-01-26T23:15:49.175Z,-2.20
2023-01-26T23:18:55.335Z,-2.19
2023-01-26T23:21:56.976Z,-2.18
2023-01-26T23:24:58.544Z,-2.18
2023-01-26T23:28:04.017Z,-2.19
2023-01-26T23:31:05.885Z,-2.18
2023-01-26T23:34:07.455Z,-2.18
2023-01-26T23:37:09.265Z,-2.17
2023-01-26T23:40:11.680Z,-2.18
2023-01-26T23:43:17.051Z,-2.21
2023-01-26T23:46:18.988Z,-2.21
2023-01-26T23:49:20.841Z,-2.19
2023-01-26T23:52:22.454Z,-2.17
2023-01-26T23:55:24.085Z,-2.16
2023-01-26T23:58:26.021Z,-2.15
